createdAt,value
2019-02-16T00:02:23.393Z,6.60
2019-02-16T00:04:55.034Z,6.60
2019-02-16T00:07:26.676Z,6.60
2019-02-16T00:09:58.287Z,6.50
2019-02-16T00:12:30.864Z,6.60
2019-02-16T00:15:03.352Z,6.50
2019-02-16T00:17:35.875Z,6.50
2019-02-16T00:20:19.530Z,6.50
2019-02-16T00:22:51.083Z,6.50
2019-02-16T00:25:25.068Z,6.50
2019-02-16T00:27:56.834Z,6.50
2019-02-16T00:30:29.537Z,6.50
2019-02-16T00:33:01.047Z,6.50
2019-02-16T00:35:32.615Z,6.50
2019-02-16T00:38:04.081Z,6.60
2019-02-16T00:40:35.731Z,6.50
2019-02-16T00:43:07.259Z,6.50
2019-02-16T00:45:40.007Z,6.50
2019-02-16T00:48:11.578Z,6.50
2019-02-16T00:50:43.125Z,6.50
2019-02-16T00:53:25.662Z,6.50
2019-02-16T00:55:56.979Z,6.50
2019-02-16T00:58:29.034Z,6.50
2019-02-16T01:01:00.769Z,6.50
2019-02-16T01:03:32.478Z,6.50
2019-02-16T01:06:04.259Z,6.50
2019-02-16T01:08:35.745Z,6.50
2019-02-16T01:11:07.422Z,6.50
2019-02-16T01:13:39.963Z,6.50
2019-02-16T01:16:11.521Z,6.60
2019-02-16T01:18:42.997Z,6.60
2019-02-16T01:21:22.547Z,6.50
2019-02-16T01:23:48.093Z,6.60
2019-02-16T01:26:20.802Z,6.60
2019-02-16T01:28:52.386Z,6.50
2019-02-16T01:31:24.654Z,6.60
2019-02-16T01:33:56.179Z,6.50
2019-02-16T01:36:28.748Z,6.50
2019-02-16T01:39:00.215Z,6.50
2019-02-16T01:41:31.731Z,6.50
2019-02-16T01:44:03.334Z,6.60
2019-02-16T01:46:34.858Z,6.60
2019-02-16T01:49:06.273Z,6.60
2019-02-16T01:51:37.862Z,6.60
2019-02-16T01:54:09.375Z,6.60
2019-02-16T01:56:40.755Z,6.60
2019-02-16T01:59:12.409Z,6.60
2019-02-16T02:01:44.958Z,6.60
2019-02-16T02:04:16.345Z,6.60
2019-02-16T02:06:48.064Z,6.60
2019-02-16T02:09:20.064Z,6.60
2019-02-16T02:11:51.644Z,6.60
2019-02-16T02:14:24.095Z,6.60
2019-02-16T02:16:55.621Z,6.50
2019-02-16T02:19:27.182Z,6.50
2019-02-16T02:21:58.853Z,6.50
2019-02-16T02:24:42.101Z,6.50
2019-02-16T02:27:13.782Z,6.60
2019-02-16T02:29:45.299Z,6.60
2019-02-16T02:32:16.843Z,6.60
2019-02-16T02:34:48.511Z,6.60
2019-02-16T02:37:20.137Z,6.60
2019-02-16T02:39:51.742Z,6.60
2019-02-16T02:42:23.425Z,6.60
2019-02-16T02:44:55.068Z,6.60
2019-02-16T02:47:27.661Z,6.60
2019-02-16T02:49:59.056Z,6.60
2019-02-16T02:52:30.776Z,6.60
2019-02-16T02:55:02.531Z,6.60
2019-02-16T02:57:34.081Z,6.60
2019-02-16T03:00:06.381Z,6.60
2019-02-16T03:02:39.004Z,6.60
2019-02-16T03:05:11.187Z,6.60
2019-02-16T03:07:42.498Z,6.60
2019-02-16T03:10:13.938Z,6.60
2019-02-16T03:12:45.379Z,6.60
2019-02-16T03:15:16.934Z,6.60
2019-02-16T03:17:48.553Z,6.60
2019-02-16T03:20:19.930Z,6.50
2019-02-16T03:23:12.965Z,6.60
2019-02-16T03:25:52.920Z,6.60
2019-02-16T03:28:43.997Z,6.60
2019-02-16T03:32:05.558Z,6.60
2019-02-16T03:34:42.201Z,6.60
2019-02-16T03:37:59.452Z,6.60
2019-02-16T03:40:45.064Z,6.60
2019-02-16T03:43:16.575Z,6.60
2019-02-16T03:45:48.387Z,6.60
2019-02-16T03:48:19.761Z,6.60
2019-02-16T03:50:51.232Z,6.60
2019-02-16T03:53:22.707Z,6.70
2019-02-16T03:55:54.366Z,6.60
2019-02-16T03:58:25.589Z,6.60
2019-02-16T04:00:57.201Z,6.60
2019-02-16T04:03:28.767Z,6.60
2019-02-16T04:06:00.133Z,6.60
2019-02-16T04:08:31.940Z,6.60
2019-02-16T04:11:03.427Z,6.60
2019-02-16T04:13:35.027Z,6.50
2019-02-16T04:16:06.644Z,6.50
2019-02-16T04:18:38.569Z,6.50
2019-02-16T04:21:10.111Z,6.50
2019-02-16T04:23:41.359Z,6.50
2019-02-16T04:26:13.039Z,6.50
2019-02-16T04:28:45.494Z,6.50
2019-02-16T04:31:17.320Z,6.50
2019-02-16T04:33:48.817Z,6.50
2019-02-16T04:36:20.437Z,6.50
2019-02-16T04:38:53.013Z,6.60
2019-02-16T04:41:25.665Z,6.60
2019-02-16T04:43:57.787Z,6.50
2019-02-16T04:46:29.371Z,6.60
2019-02-16T04:49:02.074Z,6.60
2019-02-16T04:51:34.513Z,6.60
2019-02-16T04:54:06.085Z,6.60
2019-02-16T04:56:37.579Z,6.50
2019-02-16T04:59:09.444Z,6.60
2019-02-16T05:01:40.961Z,6.60
2019-02-16T05:04:12.589Z,6.60
2019-02-16T05:06:44.179Z,6.50
2019-02-16T05:09:15.690Z,6.60
2019-02-16T05:11:48.673Z,6.60
2019-02-16T05:14:20.242Z,6.70
2019-02-16T05:16:51.785Z,6.60
2019-02-16T05:19:23.466Z,6.70
2019-02-16T05:21:55.201Z,6.60
2019-02-16T05:24:26.730Z,6.60
2019-02-16T05:26:58.342Z,6.70
2019-02-16T05:29:31.016Z,6.60
2019-02-16T05:32:02.410Z,6.60
2019-02-16T05:34:33.994Z,6.60
2019-02-16T05:37:05.607Z,6.60
2019-02-16T05:39:37.089Z,6.60
2019-02-16T05:42:08.923Z,6.60
2019-02-16T05:44:40.502Z,6.70
2019-02-16T05:47:13.150Z,6.70
2019-02-16T05:49:44.771Z,6.70
2019-02-16T05:52:16.258Z,6.80
2019-02-16T05:54:48.870Z,6.80
2019-02-16T05:57:21.601Z,6.80
2019-02-16T05:59:53.196Z,6.90
2019-02-16T06:02:24.941Z,6.80
2019-02-16T06:04:56.618Z,6.80
2019-02-16T06:07:28.592Z,6.80
2019-02-16T06:10:00.304Z,6.80
2019-02-16T06:12:32.461Z,6.70
2019-02-16T06:15:04.078Z,6.60
2019-02-16T06:17:35.755Z,6.80
2019-02-16T06:20:07.238Z,6.80
2019-02-16T06:22:39.310Z,6.80
2019-02-16T06:25:10.987Z,6.80
2019-02-16T06:27:42.429Z,6.80
2019-02-16T06:30:13.847Z,6.90
2019-02-16T06:32:45.269Z,7.00
2019-02-16T06:35:48.100Z,7.00
2019-02-16T06:38:19.916Z,7.00
2019-02-16T06:40:51.632Z,7.00
2019-02-16T06:43:23.531Z,7.00
2019-02-16T06:45:55.143Z,7.20
2019-02-16T06:48:26.373Z,7.30
2019-02-16T06:50:57.926Z,7.30
2019-02-16T06:53:29.974Z,7.50
2019-02-16T06:56:23.080Z,7.60
2019-02-16T06:58:54.595Z,7.70
2019-02-16T07:01:26.175Z,7.80
2019-02-16T07:03:59.758Z,7.90
2019-02-16T07:06:31.671Z,8.00
2019-02-16T07:09:04.636Z,8.20
2019-02-16T07:11:36.471Z,8.10
2019-02-16T07:14:09.278Z,8.10
2019-02-16T07:16:53.062Z,8.20
2019-02-16T07:19:30.557Z,8.20
2019-02-16T07:22:02.269Z,8.20
2019-02-16T07:24:34.051Z,8.20
2019-02-16T07:27:05.591Z,8.00
2019-02-16T07:29:37.230Z,7.90
2019-02-16T07:32:27.347Z,7.90
2019-02-16T07:35:09.599Z,7.90
2019-02-16T07:37:42.148Z,7.90
2019-02-16T07:40:32.562Z,7.90
2019-02-16T07:43:04.109Z,7.90
2019-02-16T07:45:58.918Z,7.90
2019-02-16T07:48:44.735Z,7.90
2019-02-16T07:51:33.916Z,7.90
2019-02-16T07:54:23.282Z,7.90
2019-02-16T07:57:08.643Z,7.80
2019-02-16T07:59:58.574Z,7.90
2019-02-16T08:02:39.171Z,7.80
2019-02-16T08:05:37.225Z,7.80
2019-02-16T08:08:27.322Z,7.80
2019-02-16T08:11:12.676Z,7.80
2019-02-16T08:14:03.438Z,7.80
2019-02-16T08:16:53.686Z,7.80
2019-02-16T08:19:34.970Z,7.80
2019-02-16T08:22:43.919Z,7.80
2019-02-16T08:25:33.141Z,7.90
2019-02-16T08:28:13.232Z,7.80
2019-02-16T08:31:03.573Z,7.80
2019-02-16T08:33:47.825Z,7.80
2019-02-16T08:36:39.666Z,7.70
2019-02-16T08:39:25.701Z,7.70
2019-02-16T08:42:20.815Z,7.70
2019-02-16T08:45:15.771Z,7.70
2019-02-16T08:48:06.040Z,7.70
2019-02-16T08:51:02.806Z,7.60
2019-02-16T08:53:52.958Z,7.60
2019-02-16T08:56:43.249Z,7.60
2019-02-16T08:59:39.260Z,7.60
2019-02-16T09:02:24.734Z,7.70
2019-02-16T09:05:21.043Z,7.70
2019-02-16T09:08:04.904Z,7.70
2019-02-16T09:10:54.201Z,7.80
2019-02-16T09:13:48.006Z,7.80
2019-02-16T09:16:54.013Z,7.70
2019-02-16T09:19:43.474Z,7.70
2019-02-16T09:22:33.863Z,7.80
2019-02-16T09:25:18.385Z,7.80
2019-02-16T09:28:00.703Z,7.80
2019-02-16T09:30:42.055Z,7.80
2019-02-16T09:33:32.969Z,7.90
2019-02-16T09:36:27.045Z,7.90
2019-02-16T09:39:16.659Z,7.90
2019-02-16T09:41:53.146Z,7.80
2019-02-16T09:44:53.181Z,7.80
2019-02-16T09:47:47.578Z,7.80
2019-02-16T09:50:58.262Z,7.80
2019-02-16T09:53:53.128Z,7.80
2019-02-16T09:56:34.295Z,7.80
2019-02-16T09:59:28.294Z,7.70
2019-02-16T10:02:15.879Z,7.80
2019-02-16T10:04:53.210Z,7.80
2019-02-16T10:07:55.611Z,7.80
2019-02-16T10:10:50.125Z,7.80
2019-02-16T10:13:49.529Z,7.90
2019-02-16T10:16:47.790Z,7.90
2019-02-16T10:19:37.008Z,7.80
2019-02-16T10:22:33.117Z,7.80
2019-02-16T10:25:29.684Z,7.90
2019-02-16T10:28:18.549Z,7.90
2019-02-16T10:31:07.447Z,7.90
2019-02-16T10:33:57.765Z,8.00
2019-02-16T10:36:46.060Z,8.10
2019-02-16T10:39:36.136Z,8.20
2019-02-16T10:42:27.138Z,8.40
2019-02-16T10:45:26.619Z,8.50
2019-02-16T10:48:32.309Z,8.70
2019-02-16T10:51:21.316Z,8.80
2019-02-16T10:54:10.539Z,9.00
2019-02-16T10:56:49.101Z,9.00
2019-02-16T10:59:27.697Z,9.10
2019-02-16T11:02:33.614Z,9.00
2019-02-16T11:05:22.513Z,9.00
2019-02-16T11:08:10.151Z,8.90
2019-02-16T11:11:00.426Z,8.90
2019-02-16T11:14:06.287Z,8.80
2019-02-16T11:17:08.698Z,8.80
2019-02-16T11:20:08.002Z,8.90
2019-02-16T11:23:07.217Z,8.80
2019-02-16T11:25:59.571Z,8.90
2019-02-16T11:29:03.087Z,9.00
2019-02-16T11:31:59.469Z,9.20
2019-02-16T11:34:47.372Z,9.20
2019-02-16T11:37:36.394Z,9.20
2019-02-16T11:40:16.650Z,9.10
2019-02-16T11:43:05.531Z,9.10
2019-02-16T11:45:50.075Z,9.00
2019-02-16T11:48:43.234Z,9.00
2019-02-16T11:51:28.479Z,9.00
2019-02-16T11:54:26.895Z,9.10
2019-02-16T11:57:24.894Z,9.00
2019-02-16T12:00:14.434Z,9.00
2019-02-16T12:03:10.178Z,9.00
2019-02-16T12:06:09.653Z,9.10
2019-02-16T12:09:19.297Z,9.00
2019-02-16T12:12:10.651Z,9.10
2019-02-16T12:15:00.490Z,9.20
2019-02-16T12:17:57.289Z,9.20
2019-02-16T12:20:43.551Z,9.20
2019-02-16T12:23:24.524Z,9.20
2019-02-16T12:26:13.964Z,9.20
2019-02-16T12:29:19.456Z,9.20
2019-02-16T12:32:16.879Z,9.20
2019-02-16T12:35:07.950Z,9.20
2019-02-16T12:37:55.853Z,9.40
2019-02-16T12:40:37.105Z,9.60
2019-02-16T12:43:34.188Z,9.60
2019-02-16T12:46:21.826Z,9.60
2019-02-16T12:49:12.153Z,9.50
2019-02-16T12:52:04.096Z,9.50
2019-02-16T12:54:49.310Z,9.60
2019-02-16T12:57:43.970Z,9.50
2019-02-16T13:00:47.466Z,9.40
2019-02-16T13:03:47.136Z,9.40
2019-02-16T13:06:26.435Z,9.50
2019-02-16T13:09:19.403Z,9.40
2019-02-16T13:12:15.983Z,9.30
2019-02-16T13:15:04.955Z,9.30
2019-02-16T13:17:55.418Z,9.20
2019-02-16T13:20:35.457Z,9.20
2019-02-16T13:23:25.594Z,9.10
2019-02-16T13:26:16.623Z,9.00
2019-02-16T13:29:12.846Z,9.00
2019-02-16T13:32:09.797Z,9.00
2019-02-16T13:35:05.921Z,8.90
2019-02-16T13:38:02.019Z,8.90
2019-02-16T13:41:02.328Z,8.90
2019-02-16T13:43:45.250Z,8.90
2019-02-16T13:46:22.864Z,8.80
2019-02-16T13:49:13.797Z,8.80
2019-02-16T13:52:09.803Z,8.80
2019-02-16T13:54:48.624Z,8.70
2019-02-16T13:57:37.634Z,8.70
2019-02-16T14:00:18.943Z,8.70
2019-02-16T14:03:04.362Z,8.70
2019-02-16T14:05:54.672Z,8.70
2019-02-16T14:08:46.067Z,8.70
2019-02-16T14:11:41.067Z,8.70
2019-02-16T14:14:28.878Z,8.70
2019-02-16T14:17:15.757Z,8.70
2019-02-16T14:19:47.617Z,8.60
2019-02-16T14:22:19.599Z,8.60
2019-02-16T14:24:55.429Z,8.60
2019-02-16T14:27:37.912Z,8.50
2019-02-16T14:30:11.593Z,8.50
2019-02-16T14:32:43.281Z,8.50
2019-02-16T14:35:15.001Z,8.40
2019-02-16T14:37:57.835Z,8.40
2019-02-16T14:40:32.733Z,8.40
2019-02-16T14:43:19.722Z,8.40
2019-02-16T14:45:51.181Z,8.30
2019-02-16T14:48:24.011Z,8.40
2019-02-16T14:50:55.992Z,8.30
2019-02-16T14:53:27.716Z,8.30
2019-02-16T14:56:00.878Z,8.30
2019-02-16T14:58:33.520Z,8.20
2019-02-16T15:01:05.422Z,8.20
2019-02-16T15:03:37.264Z,8.20
2019-02-16T15:06:08.636Z,8.10
2019-02-16T15:08:42.202Z,8.10
2019-02-16T15:11:14.286Z,8.10
2019-02-16T15:13:46.432Z,8.00
2019-02-16T15:16:18.100Z,8.00
2019-02-16T15:18:49.740Z,8.00
2019-02-16T15:21:21.387Z,8.00
2019-02-16T15:23:53.143Z,7.90
2019-02-16T15:26:28.622Z,7.90
2019-02-16T15:28:58.734Z,7.80
2019-02-16T15:31:31.182Z,7.90
2019-02-16T15:34:03.605Z,7.80
2019-02-16T15:36:35.043Z,7.80
2019-02-16T15:39:07.823Z,7.90
2019-02-16T15:41:38.943Z,7.80
2019-02-16T15:44:10.873Z,7.80
2019-02-16T15:46:42.685Z,7.80
2019-02-16T15:49:16.797Z,7.80
2019-02-16T15:51:48.537Z,7.90
2019-02-16T15:54:20.164Z,7.80
2019-02-16T15:56:51.687Z,7.80
2019-02-16T15:59:23.455Z,7.80
2019-02-16T16:01:55.296Z,7.80
2019-02-16T16:04:26.737Z,7.80
2019-02-16T16:06:58.219Z,7.70
2019-02-16T16:09:51.372Z,7.70
2019-02-16T16:12:37.869Z,7.70
2019-02-16T16:15:28.156Z,7.70
2019-02-16T16:18:24.488Z,7.60
2019-02-16T16:21:20.724Z,7.70
2019-02-16T16:24:10.987Z,7.70
2019-02-16T16:27:00.470Z,7.70
2019-02-16T16:29:59.818Z,7.70
2019-02-16T16:33:00.486Z,7.70
2019-02-16T16:35:53.696Z,7.70
2019-02-16T16:38:41.759Z,7.60
2019-02-16T16:41:29.691Z,7.70
2019-02-16T16:44:07.831Z,7.60
2019-02-16T16:47:13.581Z,7.70
2019-02-16T16:50:18.561Z,7.60
2019-02-16T16:53:02.290Z,7.60
2019-02-16T16:55:52.009Z,7.60
2019-02-16T16:58:41.226Z,7.60
2019-02-16T17:01:37.776Z,7.60
2019-02-16T17:04:29.699Z,7.50
2019-02-16T17:07:16.885Z,7.60
2019-02-16T17:10:08.516Z,7.60
2019-02-16T17:12:59.482Z,7.60
2019-02-16T17:16:14.926Z,7.50
2019-02-16T17:19:00.541Z,7.60
2019-02-16T17:21:53.836Z,7.50
2019-02-16T17:24:47.059Z,7.50
2019-02-16T17:27:28.351Z,7.50
2019-02-16T17:30:34.961Z,7.40
2019-02-16T17:33:25.339Z,7.40
2019-02-16T17:36:18.665Z,7.40
2019-02-16T17:39:01.987Z,7.40
2019-02-16T17:42:02.201Z,7.40
2019-02-16T17:45:01.873Z,7.40
2019-02-16T17:47:47.737Z,7.30
2019-02-16T17:50:36.385Z,7.40
2019-02-16T17:53:42.742Z,7.40
2019-02-16T17:56:46.650Z,7.40
2019-02-16T17:59:33.592Z,7.40
2019-02-16T18:02:36.931Z,7.40
2019-02-16T18:05:22.431Z,7.40
2019-02-16T18:08:13.114Z,7.40
2019-02-16T18:11:04.003Z,7.40
2019-02-16T18:13:42.969Z,7.40
2019-02-16T18:16:27.985Z,7.40
2019-02-16T18:19:06.074Z,7.30
2019-02-16T18:22:08.535Z,7.30
2019-02-16T18:25:00.355Z,7.40
2019-02-16T18:27:46.495Z,7.40
2019-02-16T18:30:49.422Z,7.40
2019-02-16T18:33:47.425Z,7.40
2019-02-16T18:36:45.604Z,7.30
2019-02-16T18:39:49.624Z,7.30
2019-02-16T18:42:32.609Z,7.30
2019-02-16T18:45:29.130Z,7.30
2019-02-16T18:48:38.570Z,7.30
2019-02-16T18:51:33.690Z,7.30
2019-02-16T18:54:23.601Z,7.30
2019-02-16T18:57:13.993Z,7.20
2019-02-16T19:00:13.188Z,7.20
2019-02-16T19:03:04.316Z,7.20
2019-02-16T19:05:59.201Z,7.20
2019-02-16T19:08:56.243Z,7.20
2019-02-16T19:11:59.289Z,7.20
2019-02-16T19:14:49.359Z,7.20
2019-02-16T19:17:41.838Z,7.20
2019-02-16T19:20:34.962Z,7.20
2019-02-16T19:23:40.371Z,7.20
2019-02-16T19:26:25.457Z,7.10
2019-02-16T19:29:03.755Z,7.10
2019-02-16T19:31:51.527Z,7.10
2019-02-16T19:34:39.658Z,7.10
2019-02-16T19:37:22.038Z,7.20
2019-02-16T19:40:12.440Z,7.10
2019-02-16T19:43:04.446Z,7.20
2019-02-16T19:45:56.975Z,7.20
2019-02-16T19:48:52.037Z,7.20
2019-02-16T19:51:43.718Z,7.20
2019-02-16T19:54:38.783Z,7.30
2019-02-16T19:57:42.966Z,7.20
2019-02-16T20:00:40.202Z,7.20
2019-02-16T20:03:26.634Z,7.20
2019-02-16T20:06:37.999Z,7.10
2019-02-16T20:09:50.315Z,7.10
2019-02-16T20:12:56.669Z,7.10
2019-02-16T20:15:48.142Z,7.00
2019-02-16T20:18:47.662Z,7.00
2019-02-16T20:21:37.916Z,7.00
2019-02-16T20:24:37.522Z,6.90
2019-02-16T20:27:37.007Z,6.90
2019-02-16T20:30:24.777Z,6.90
2019-02-16T20:33:17.720Z,6.90
2019-02-16T20:36:01.908Z,7.00
2019-02-16T20:38:58.431Z,7.00
2019-02-16T20:41:42.335Z,7.00
2019-02-16T20:44:32.693Z,7.00
2019-02-16T20:47:21.982Z,7.00
2019-02-16T20:50:19.327Z,7.00
2019-02-16T20:53:08.881Z,6.90
2019-02-16T20:55:47.097Z,6.90
2019-02-16T20:58:47.001Z,6.90
2019-02-16T21:01:25.779Z,6.90
2019-02-16T21:04:35.297Z,6.90
2019-02-16T21:07:26.705Z,6.90
2019-02-16T21:10:23.808Z,6.90
2019-02-16T21:13:05.411Z,6.90
2019-02-16T21:16:13.011Z,6.80
2019-02-16T21:19:10.244Z,6.80
2019-02-16T21:22:02.066Z,6.80
2019-02-16T21:24:52.756Z,6.80
2019-02-16T21:27:44.336Z,6.80
2019-02-16T21:30:38.076Z,6.80
2019-02-16T21:33:40.442Z,6.80
2019-02-16T21:36:47.078Z,6.80
2019-02-16T21:39:44.706Z,6.80
2019-02-16T21:42:39.462Z,6.80
2019-02-16T21:45:19.983Z,6.80
2019-02-16T21:48:13.568Z,6.80
2019-02-16T21:51:12.784Z,6.80
2019-02-16T21:53:55.172Z,6.70
2019-02-16T21:56:51.664Z,6.60
2019-02-16T21:59:39.915Z,6.60
2019-02-16T22:02:33.553Z,6.60
2019-02-16T22:05:13.916Z,6.50
2019-02-16T22:08:16.686Z,6.40
2019-02-16T22:11:22.495Z,6.30
2019-02-16T22:13:54.262Z,6.30
2019-02-16T22:16:25.931Z,5.80
2019-02-16T22:18:57.542Z,5.60
2019-02-16T22:21:29.045Z,5.50
2019-02-16T22:24:00.664Z,5.30
2019-02-16T22:26:32.260Z,5.20
2019-02-16T22:29:03.876Z,5.00
2019-02-16T22:31:35.890Z,4.80
2019-02-16T22:34:08.655Z,4.80
2019-02-16T22:36:40.195Z,4.70
2019-02-16T22:39:11.739Z,4.60
2019-02-16T22:41:44.366Z,4.50
2019-02-16T22:44:15.965Z,4.50
2019-02-16T22:46:48.182Z,4.60
2019-02-16T22:49:19.864Z,4.30
2019-02-16T22:51:51.430Z,4.20
2019-02-16T22:54:23.113Z,4.10
2019-02-16T22:57:06.039Z,4.10
2019-02-16T22:59:37.611Z,4.00
2019-02-16T23:02:10.069Z,4.00
2019-02-16T23:04:42.784Z,3.90
2019-02-16T23:07:14.292Z,3.90
2019-02-16T23:09:45.801Z,3.80
2019-02-16T23:12:17.502Z,3.70
2019-02-16T23:14:48.942Z,3.60
2019-02-16T23:17:21.574Z,3.60
2019-02-16T23:19:53.118Z,3.50
2019-02-16T23:22:24.434Z,3.50
2019-02-16T23:24:55.797Z,3.50
2019-02-16T23:27:27.522Z,3.50
2019-02-16T23:29:58.906Z,3.40
2019-02-16T23:32:30.832Z,3.40
2019-02-16T23:35:02.513Z,3.40
2019-02-16T23:37:34.128Z,3.30
2019-02-16T23:40:06.077Z,3.30
2019-02-16T23:42:38.880Z,3.30
2019-02-16T23:45:10.528Z,3.30
2019-02-16T23:47:42.297Z,3.30
2019-02-16T23:50:13.880Z,3.30
2019-02-16T23:52:45.661Z,3.20
2019-02-16T23:55:17.198Z,3.20
2019-02-16T23:57:49.346Z,3.20
